createdAt,value
2022-09-17T00:00:28.382Z,41.17
2022-09-17T00:01:28.346Z,41.17
2022-09-17T00:02:28.368Z,40.78
2022-09-17T00:03:28.232Z,41.17
2022-09-17T00:04:28.220Z,41.17
2022-09-17T00:05:28.209Z,40.78
2022-09-17T00:06:28.196Z,40.58
2022-09-17T00:07:28.191Z,40.58
2022-09-17T00:08:28.174Z,40.58
2022-09-17T00:09:28.168Z,40.78
2022-09-17T00:10:28.154Z,40.78
2022-09-17T00:11:28.140Z,40.58
2022-09-17T00:12:28.129Z,40.58
2022-09-17T00:13:28.138Z,40.78
2022-09-17T00:14:28.107Z,40.78
2022-09-17T00:15:28.095Z,40.68
2022-09-17T00:16:28.277Z,40.58
2022-09-17T00:17:28.073Z,40.68
2022-09-17T00:18:28.065Z,40.68
2022-09-17T00:19:28.068Z,40.68
2022-09-17T00:20:28.038Z,40.58
2022-09-17T00:21:28.026Z,40.68
2022-09-17T00:22:28.016Z,40.68
2022-09-17T00:23:28.005Z,40.78
2022-09-17T00:24:27.995Z,40.48
2022-09-17T00:25:27.989Z,40.58
2022-09-17T00:26:27.971Z,41.08
2022-09-17T00:27:27.960Z,40.48
2022-09-17T00:28:27.963Z,40.98
2022-09-17T00:29:27.939Z,41.08
2022-09-17T00:30:27.934Z,40.58
2022-09-17T00:31:27.982Z,40.98
2022-09-17T00:32:28.024Z,41.77
2022-09-17T00:33:27.892Z,40.58
2022-09-17T00:34:27.883Z,41.08
2022-09-17T00:35:27.869Z,41.38
2022-09-17T00:36:27.858Z,41.17
2022-09-17T00:37:27.854Z,41.28
2022-09-17T00:38:27.837Z,41.28
2022-09-17T00:39:27.829Z,41.47
2022-09-17T00:40:27.912Z,41.46
2022-09-17T00:41:27.805Z,41.28
2022-09-17T00:42:27.791Z,41.38
2022-09-17T00:43:27.805Z,41.17
2022-09-17T00:44:27.770Z,41.28
2022-09-17T00:45:27.759Z,41.58
2022-09-17T00:46:27.862Z,41.28
2022-09-17T00:47:27.735Z,41.28
2022-09-17T00:48:27.842Z,41.08
2022-09-17T00:49:27.734Z,41.47
2022-09-17T00:50:27.702Z,41.28
2022-09-17T00:51:27.690Z,41.28
2022-09-17T00:52:27.678Z,41.28
2022-09-17T00:53:27.667Z,41.28
2022-09-17T00:54:27.658Z,41.28
2022-09-17T00:55:27.651Z,41.28
2022-09-17T00:56:27.633Z,41.38
2022-09-17T00:57:27.622Z,41.47
2022-09-17T00:58:27.611Z,40.98
2022-09-17T00:59:27.599Z,41.17
2022-09-17T01:00:27.588Z,41.38
2022-09-17T01:01:27.689Z,41.67
2022-09-17T01:02:27.645Z,41.28
2022-09-17T01:03:27.555Z,41.47
2022-09-17T01:04:27.664Z,41.58
2022-09-17T01:05:27.534Z,41.58
2022-09-17T01:06:27.521Z,41.47
2022-09-17T01:07:27.517Z,41.47
2022-09-17T01:08:27.498Z,41.47
2022-09-17T01:09:27.487Z,41.17
2022-09-17T01:10:27.476Z,41.58
2022-09-17T01:11:27.464Z,42.27
2022-09-17T01:12:27.452Z,41.58
2022-09-17T01:13:27.450Z,41.28
2022-09-17T01:14:27.434Z,41.38
2022-09-17T01:15:27.421Z,41.47
2022-09-17T01:16:27.557Z,41.17
2022-09-17T01:17:27.396Z,41.17
2022-09-17T01:18:27.387Z,42.17
2022-09-17T01:19:27.395Z,42.07
2022-09-17T01:20:27.528Z,41.58
2022-09-17T01:21:27.352Z,42.17
2022-09-17T01:22:27.342Z,41.97
2022-09-17T01:23:27.330Z,42.47
2022-09-17T01:24:27.318Z,41.38
2022-09-17T01:25:27.313Z,41.87
2022-09-17T01:26:27.296Z,41.67
2022-09-17T01:27:27.284Z,41.67
2022-09-17T01:28:27.273Z,41.97
2022-09-17T01:29:27.261Z,41.97
2022-09-17T01:30:27.251Z,41.97
2022-09-17T01:31:27.323Z,42.17
2022-09-17T01:32:27.227Z,41.97
2022-09-17T01:33:27.222Z,41.87
2022-09-17T01:34:27.205Z,41.87
2022-09-17T01:35:27.194Z,41.97
2022-09-17T01:36:27.303Z,41.87
2022-09-17T01:37:30.633Z,41.97
2022-09-17T01:38:27.160Z,41.87
2022-09-17T01:39:27.149Z,41.87
2022-09-17T01:40:27.161Z,42.07
2022-09-17T01:41:27.126Z,41.97
2022-09-17T01:42:27.115Z,41.87
2022-09-17T01:43:27.133Z,41.87
2022-09-17T01:44:27.093Z,42.07
2022-09-17T01:45:27.081Z,41.97
2022-09-17T01:46:27.157Z,41.97
2022-09-17T01:47:27.058Z,42.17
2022-09-17T01:48:27.049Z,41.97
2022-09-17T01:49:27.042Z,41.97
2022-09-17T01:50:27.026Z,41.97
2022-09-17T01:51:27.015Z,42.17
2022-09-17T01:52:27.120Z,41.87
2022-09-17T01:53:26.998Z,42.17
2022-09-17T01:54:26.979Z,42.17
2022-09-17T01:55:26.990Z,42.17
2022-09-17T01:56:26.960Z,41.67
2022-09-17T01:57:26.946Z,41.77
2022-09-17T01:58:26.936Z,42.17
2022-09-17T01:59:26.923Z,41.87
2022-09-17T02:00:26.912Z,41.77
2022-09-17T02:01:27.038Z,41.77
2022-09-17T02:02:26.922Z,42.17
2022-09-17T02:03:26.878Z,42.27
2022-09-17T02:04:26.868Z,42.27
2022-09-17T02:05:26.855Z,42.27
2022-09-17T02:06:26.844Z,41.87
2022-09-17T02:07:26.840Z,41.97
2022-09-17T02:08:26.939Z,41.97
2022-09-17T02:09:26.810Z,41.97
2022-09-17T02:10:26.801Z,42.07
2022-09-17T02:11:26.788Z,41.97
2022-09-17T02:12:26.776Z,42.07
2022-09-17T02:13:26.780Z,41.87
2022-09-17T02:14:26.755Z,41.87
2022-09-17T02:15:26.743Z,41.87
2022-09-17T02:16:26.838Z,42.09
2022-09-17T02:17:26.722Z,41.87
2022-09-17T02:18:26.709Z,42.09
2022-09-17T02:19:26.704Z,42.07
2022-09-17T02:20:26.687Z,42.27
2022-09-17T02:21:26.675Z,42.07
2022-09-17T02:22:26.665Z,42.27
2022-09-17T02:23:26.652Z,41.97
2022-09-17T02:24:26.761Z,42.07
2022-09-17T02:25:26.638Z,42.07
2022-09-17T02:26:26.640Z,42.29
2022-09-17T02:27:26.608Z,42.17
2022-09-17T02:28:26.596Z,42.27
2022-09-17T02:29:26.595Z,41.77
2022-09-17T02:30:26.574Z,42.17
2022-09-17T02:31:26.686Z,41.77
2022-09-17T02:32:26.552Z,41.77
2022-09-17T02:33:26.540Z,41.89
2022-09-17T02:34:26.528Z,42.17
2022-09-17T02:35:26.519Z,41.87
2022-09-17T02:36:26.506Z,42.27
2022-09-17T02:37:26.502Z,41.87
2022-09-17T02:38:26.484Z,41.87
2022-09-17T02:39:26.472Z,41.87
2022-09-17T02:40:26.679Z,41.87
2022-09-17T02:41:26.451Z,41.79
2022-09-17T02:42:26.442Z,41.87
2022-09-17T02:43:26.443Z,41.97
2022-09-17T02:44:26.418Z,42.07
2022-09-17T02:45:26.405Z,42.07
2022-09-17T02:46:26.424Z,41.97
2022-09-17T02:47:26.381Z,42.29
2022-09-17T02:48:26.371Z,41.87
2022-09-17T02:49:26.381Z,42.17
2022-09-17T02:50:26.350Z,42.09
2022-09-17T02:51:26.338Z,42.07
2022-09-17T02:52:26.327Z,42.27
2022-09-17T02:53:26.315Z,42.07
2022-09-17T02:54:26.312Z,42.07
2022-09-17T02:55:26.327Z,42.07
2022-09-17T02:56:26.402Z,42.07
2022-09-17T02:57:26.270Z,42.17
2022-09-17T02:58:26.259Z,41.97
2022-09-17T02:59:26.248Z,42.47
2022-09-17T03:00:26.237Z,41.89
2022-09-17T03:01:26.244Z,42.17
2022-09-17T03:02:26.269Z,41.87
2022-09-17T03:03:26.201Z,41.87
2022-09-17T03:04:26.190Z,41.89
2022-09-17T03:05:26.182Z,41.87
2022-09-17T03:06:26.169Z,41.89
2022-09-17T03:07:26.164Z,41.89
2022-09-17T03:08:26.145Z,41.67
2022-09-17T03:09:26.135Z,42.09
2022-09-17T03:10:26.123Z,41.87
2022-09-17T03:11:26.111Z,41.87
2022-09-17T03:12:26.217Z,41.89
2022-09-17T03:13:26.096Z,41.87
2022-09-17T03:14:26.077Z,41.97
2022-09-17T03:15:26.067Z,41.99
2022-09-17T03:16:26.122Z,41.87
2022-09-17T03:17:26.044Z,41.87
2022-09-17T03:18:26.033Z,41.99
2022-09-17T03:19:26.055Z,41.97
2022-09-17T03:20:26.014Z,41.67
2022-09-17T03:21:26.000Z,41.97
2022-09-17T03:22:25.987Z,41.99
2022-09-17T03:23:25.976Z,41.97
2022-09-17T03:24:25.965Z,41.97
2022-09-17T03:25:25.959Z,41.99
2022-09-17T03:26:25.942Z,41.67
2022-09-17T03:27:25.931Z,42.07
2022-09-17T03:28:26.038Z,41.97
2022-09-17T03:29:25.908Z,41.97
2022-09-17T03:30:25.897Z,42.07
2022-09-17T03:31:25.984Z,41.79
2022-09-17T03:32:25.874Z,42.09
2022-09-17T03:33:25.865Z,41.99
2022-09-17T03:34:25.853Z,42.09
2022-09-17T03:35:25.842Z,42.07
2022-09-17T03:36:25.829Z,42.07
2022-09-17T03:37:28.050Z,42.07
2022-09-17T03:38:25.808Z,42.09
2022-09-17T03:39:25.796Z,42.07
2022-09-17T03:40:25.824Z,41.97
2022-09-17T03:41:25.772Z,42.09
2022-09-17T03:42:25.761Z,41.97
2022-09-17T03:43:25.757Z,41.97
2022-09-17T03:44:25.853Z,42.29
2022-09-17T03:45:25.729Z,42.49
2022-09-17T03:46:25.808Z,41.97
2022-09-17T03:47:25.706Z,41.87
2022-09-17T03:48:25.699Z,42.57
2022-09-17T03:49:25.690Z,42.09
2022-09-17T03:50:25.672Z,42.17
2022-09-17T03:51:25.660Z,42.49
2022-09-17T03:52:25.649Z,42.39
2022-09-17T03:53:25.639Z,42.39
2022-09-17T03:54:25.627Z,42.57
2022-09-17T03:55:25.662Z,42.49
2022-09-17T03:56:25.604Z,42.17
2022-09-17T03:57:25.592Z,42.39
2022-09-17T03:58:25.584Z,42.17
2022-09-17T03:59:25.570Z,42.37
2022-09-17T04:00:25.676Z,42.27
2022-09-17T04:01:25.599Z,42.27
2022-09-17T04:02:25.762Z,42.27
2022-09-17T04:03:25.527Z,42.27
2022-09-17T04:04:25.513Z,42.27
2022-09-17T04:05:25.501Z,42.47
2022-09-17T04:06:25.494Z,42.49
2022-09-17T04:07:25.496Z,42.37
2022-09-17T04:08:25.470Z,42.49
2022-09-17T04:09:25.866Z,42.49
2022-09-17T04:10:25.446Z,42.29
2022-09-17T04:11:25.435Z,42.27
2022-09-17T04:12:25.424Z,42.27
2022-09-17T04:13:25.418Z,42.49
2022-09-17T04:14:25.401Z,42.47
2022-09-17T04:15:25.391Z,42.49
2022-09-17T04:16:25.598Z,42.27
2022-09-17T04:17:25.366Z,42.37
2022-09-17T04:18:25.355Z,42.47
2022-09-17T04:19:25.354Z,42.37
2022-09-17T04:20:25.334Z,42.49
2022-09-17T04:21:25.324Z,42.59
2022-09-17T04:22:25.314Z,42.37
2022-09-17T04:23:25.323Z,42.59
2022-09-17T04:24:25.289Z,42.59
2022-09-17T04:25:25.282Z,42.49
2022-09-17T04:26:25.268Z,42.39
2022-09-17T04:27:25.255Z,42.69
2022-09-17T04:28:25.243Z,42.47
2022-09-17T04:29:25.232Z,42.47
2022-09-17T04:30:25.220Z,42.29
2022-09-17T04:32:40.998Z,42.49
2022-09-17T04:33:40.866Z,42.29
2022-09-17T04:34:40.854Z,42.59
2022-09-17T04:35:40.843Z,42.59
2022-09-17T04:36:40.840Z,42.27
2022-09-17T04:37:40.822Z,42.67
2022-09-17T04:38:40.852Z,42.39
2022-09-17T04:39:40.798Z,42.69
2022-09-17T04:40:40.810Z,42.59
2022-09-17T04:41:40.776Z,42.29
2022-09-17T04:42:40.766Z,42.39
2022-09-17T04:43:40.752Z,42.67
2022-09-17T04:44:40.761Z,42.29
2022-09-17T04:45:40.729Z,42.29
2022-09-17T04:46:40.853Z,42.07
2022-09-17T04:47:40.712Z,42.29
2022-09-17T04:48:40.814Z,42.27
2022-09-17T04:49:40.686Z,42.29
2022-09-17T04:50:40.692Z,42.77
2022-09-17T04:51:40.664Z,42.27
2022-09-17T04:52:40.653Z,42.09
2022-09-17T04:53:40.639Z,42.29
2022-09-17T04:54:40.633Z,42.29
2022-09-17T04:55:40.617Z,42.29
2022-09-17T04:56:40.629Z,42.69
2022-09-17T04:57:40.594Z,42.67
2022-09-17T04:58:40.584Z,42.09
2022-09-17T04:59:40.572Z,42.39
2022-09-17T05:00:40.619Z,42.09
2022-09-17T05:01:40.637Z,42.29
2022-09-17T05:02:40.547Z,42.59
2022-09-17T05:03:40.528Z,42.19
2022-09-17T05:04:40.638Z,42.19
2022-09-17T05:05:40.505Z,42.29
2022-09-17T05:06:40.495Z,42.07
2022-09-17T05:07:40.482Z,42.86
2022-09-17T05:08:40.480Z,42.27
2022-09-17T05:09:40.459Z,42.49
2022-09-17T05:10:40.452Z,42.07
2022-09-17T05:11:40.439Z,42.07
2022-09-17T05:12:40.432Z,42.27
2022-09-17T05:13:40.416Z,42.17
2022-09-17T05:14:40.433Z,42.19
2022-09-17T05:15:40.581Z,42.19
2022-09-17T05:16:40.381Z,42.19
2022-09-17T05:17:40.385Z,42.19
2022-09-17T05:18:40.359Z,42.19
2022-09-17T05:19:40.347Z,42.19
2022-09-17T05:20:40.473Z,42.09
2022-09-17T05:21:40.334Z,42.27
2022-09-17T05:22:40.314Z,42.19
2022-09-17T05:23:40.307Z,42.19
2022-09-17T05:24:40.292Z,42.27
2022-09-17T05:25:40.279Z,42.17
2022-09-17T05:26:40.276Z,42.29
2022-09-17T05:27:40.258Z,42.19
2022-09-17T05:28:40.249Z,42.29
2022-09-17T05:29:40.239Z,42.29
2022-09-17T05:30:40.224Z,42.09
2022-09-17T05:31:40.292Z,42.39
2022-09-17T05:32:40.209Z,42.17
2022-09-17T05:33:40.195Z,42.17
2022-09-17T05:34:40.179Z,42.17
2022-09-17T05:35:40.168Z,42.17
2022-09-17T05:36:40.272Z,42.19
2022-09-17T05:37:40.147Z,42.17
2022-09-17T05:38:40.150Z,42.09
2022-09-17T05:39:40.123Z,42.19
2022-09-17T05:40:40.112Z,42.09
2022-09-17T05:41:40.100Z,42.37
2022-09-17T05:42:40.088Z,42.17
2022-09-17T05:43:40.079Z,42.29
2022-09-17T05:44:40.100Z,42.09
2022-09-17T05:45:40.057Z,42.19
2022-09-17T05:46:40.098Z,42.37
2022-09-17T05:47:40.036Z,42.17
2022-09-17T05:48:40.022Z,42.17
2022-09-17T05:49:40.014Z,42.17
2022-09-17T05:50:40.005Z,42.27
2022-09-17T05:51:39.988Z,42.17
2022-09-17T05:52:40.089Z,42.37
2022-09-17T05:53:39.965Z,42.27
2022-09-17T05:54:39.953Z,42.27
2022-09-17T05:55:39.945Z,42.27
2022-09-17T05:56:39.952Z,42.57
2022-09-17T05:57:39.920Z,42.67
2022-09-17T05:58:39.908Z,42.57
2022-09-17T05:59:39.898Z,42.27
2022-09-17T06:00:39.887Z,42.67
2022-09-17T06:01:39.891Z,42.27
2022-09-17T06:02:40.398Z,42.57
2022-09-17T06:03:39.854Z,42.47
2022-09-17T06:04:39.842Z,42.57
2022-09-17T06:05:39.830Z,42.59
2022-09-17T06:06:39.818Z,42.67
2022-09-17T06:07:39.808Z,42.27
2022-09-17T06:08:39.918Z,42.67
2022-09-17T06:09:39.784Z,42.27
2022-09-17T06:10:39.775Z,42.27
2022-09-17T06:11:39.761Z,42.67
2022-09-17T06:12:39.751Z,42.27
2022-09-17T06:13:39.739Z,42.37
2022-09-17T06:14:39.742Z,42.27
2022-09-17T06:15:39.731Z,42.47
2022-09-17T06:16:39.756Z,42.67
2022-09-17T06:17:39.695Z,42.67
2022-09-17T06:18:39.684Z,42.27
2022-09-17T06:19:39.674Z,42.07
2022-09-17T06:20:39.675Z,42.27
2022-09-17T06:21:39.650Z,42.27
2022-09-17T06:22:39.639Z,42.07
2022-09-17T06:23:39.628Z,42.37
2022-09-17T06:24:39.736Z,42.57
2022-09-17T06:25:39.605Z,42.67
2022-09-17T06:26:39.625Z,42.67
2022-09-17T06:27:39.583Z,42.47
2022-09-17T06:28:41.876Z,42.67
2022-09-17T06:29:39.559Z,42.57
2022-09-17T06:30:39.548Z,42.67
2022-09-17T06:31:39.605Z,42.57
2022-09-17T06:32:39.547Z,42.47
2022-09-17T06:33:39.518Z,42.47
2022-09-17T06:34:39.504Z,42.27
2022-09-17T06:35:39.492Z,42.37
2022-09-17T06:36:39.480Z,42.27
2022-09-17T06:37:39.470Z,42.37
2022-09-17T06:38:39.474Z,42.47
2022-09-17T06:39:39.447Z,42.17
2022-09-17T06:40:39.650Z,42.47
2022-09-17T06:41:39.427Z,42.57
2022-09-17T06:42:39.414Z,42.27
2022-09-17T06:43:39.402Z,42.17
2022-09-17T06:44:39.397Z,42.37
2022-09-17T06:45:39.379Z,42.57
2022-09-17T06:46:39.417Z,42.07
2022-09-17T06:47:39.357Z,42.05
2022-09-17T06:48:39.346Z,42.07
2022-09-17T06:49:39.338Z,41.77
2022-09-17T06:50:42.668Z,41.95
2022-09-17T06:51:39.313Z,42.05
2022-09-17T06:52:39.303Z,42.07
2022-09-17T06:53:39.290Z,41.55
2022-09-17T06:54:39.278Z,42.17
2022-09-17T06:55:39.267Z,41.85
2022-09-17T06:56:39.380Z,41.77
2022-09-17T06:57:39.244Z,41.97
2022-09-17T06:58:39.234Z,42.05
2022-09-17T06:59:39.221Z,41.85
2022-09-17T07:00:39.237Z,42.05
2022-09-17T07:01:39.283Z,42.05
2022-09-17T07:02:39.217Z,41.87
2022-09-17T07:03:39.178Z,42.25
2022-09-17T07:04:39.165Z,41.95
2022-09-17T07:05:39.159Z,42.05
2022-09-17T07:06:39.143Z,42.05
2022-09-17T07:07:39.132Z,41.66
2022-09-17T07:08:39.188Z,42.15
2022-09-17T07:09:39.110Z,41.75
2022-09-17T07:10:39.098Z,41.66
2022-09-17T07:11:39.088Z,41.85
2022-09-17T07:12:39.191Z,41.66
2022-09-17T07:13:39.064Z,41.95
2022-09-17T07:14:39.061Z,41.87
2022-09-17T07:15:39.090Z,41.87
2022-09-17T07:16:39.030Z,41.85
2022-09-17T07:17:39.019Z,41.97
2022-09-17T07:18:39.008Z,41.87
2022-09-17T07:19:38.999Z,41.85
2022-09-17T07:20:38.996Z,41.85
2022-09-17T07:21:38.984Z,41.66
2022-09-17T07:22:38.963Z,41.85
2022-09-17T07:23:38.952Z,41.95
2022-09-17T07:24:38.942Z,41.66
2022-09-17T07:25:38.930Z,42.05
2022-09-17T07:26:38.925Z,41.46
2022-09-17T07:27:38.909Z,41.85
2022-09-17T07:28:39.018Z,41.95
2022-09-17T07:29:38.885Z,41.66
2022-09-17T07:30:38.878Z,42.05
2022-09-17T07:31:38.950Z,41.85
2022-09-17T07:32:38.861Z,42.15
2022-09-17T07:33:38.840Z,42.35
2022-09-17T07:34:38.830Z,41.66
2022-09-17T07:35:38.819Z,41.75
2022-09-17T07:36:38.811Z,42.35
2022-09-17T07:37:38.795Z,42.05
2022-09-17T07:38:38.792Z,42.05
2022-09-17T07:39:38.773Z,41.95
2022-09-17T07:40:38.852Z,41.95
2022-09-17T07:41:38.751Z,41.85
2022-09-17T07:42:38.739Z,42.25
2022-09-17T07:43:38.727Z,42.05
2022-09-17T07:44:38.843Z,41.85
2022-09-17T07:45:38.705Z,41.85
2022-09-17T07:46:38.749Z,42.15
2022-09-17T07:47:38.682Z,41.83
2022-09-17T07:48:38.672Z,42.35
2022-09-17T07:49:38.660Z,41.44
2022-09-17T07:50:38.656Z,42.13
2022-09-17T07:51:40.454Z,42.03
2022-09-17T07:52:38.625Z,42.13
2022-09-17T07:53:38.615Z,41.53
2022-09-17T07:54:38.608Z,41.44
2022-09-17T07:55:38.592Z,41.24
2022-09-17T07:56:38.611Z,41.24
2022-09-17T07:57:38.570Z,41.34
2022-09-17T07:58:38.558Z,41.24
2022-09-17T07:59:38.547Z,40.94
2022-09-17T08:00:38.654Z,41.53
2022-09-17T08:01:38.681Z,41.63
2022-09-17T08:02:38.627Z,41.63
2022-09-17T08:03:38.505Z,41.04
2022-09-17T08:04:38.491Z,41.24
2022-09-17T08:05:38.487Z,41.24
2022-09-17T08:06:38.469Z,41.04
2022-09-17T08:07:38.457Z,40.74
2022-09-17T08:08:38.455Z,40.44
2022-09-17T08:09:38.434Z,40.54
2022-09-17T08:10:38.424Z,40.64
2022-09-17T08:11:55.159Z,40.64
2022-09-17T08:12:39.400Z,40.54
2022-09-17T08:13:38.401Z,40.64
2022-09-17T08:14:38.415Z,40.84
2022-09-17T08:15:38.367Z,41.02
2022-09-17T08:16:38.470Z,40.72
2022-09-17T08:17:38.344Z,41.02
2022-09-17T08:18:38.333Z,40.72
2022-09-17T08:19:38.322Z,40.72
2022-09-17T08:20:38.317Z,40.92
2022-09-17T08:21:38.300Z,40.72
2022-09-17T08:22:38.288Z,40.72
2022-09-17T08:23:38.277Z,40.82
2022-09-17T08:24:38.266Z,40.72
2022-09-17T08:25:38.254Z,40.72
2022-09-17T08:26:38.250Z,40.72
2022-09-17T08:27:38.232Z,40.82
2022-09-17T08:28:38.221Z,41.12
2022-09-17T08:29:38.211Z,41.02
2022-09-17T08:30:38.199Z,40.72
2022-09-17T08:31:38.261Z,40.82
2022-09-17T08:32:38.308Z,41.02
2022-09-17T08:33:38.166Z,41.02
2022-09-17T08:34:38.154Z,41.02
2022-09-17T08:35:38.141Z,40.92
2022-09-17T08:36:38.131Z,40.92
2022-09-17T08:37:38.120Z,40.82
2022-09-17T08:38:38.515Z,40.62
2022-09-17T08:39:38.097Z,40.52
2022-09-17T08:40:38.125Z,40.22
2022-09-17T08:41:38.075Z,40.52
2022-09-17T08:42:38.063Z,40.12
2022-09-17T08:43:38.052Z,40.62
2022-09-17T08:44:38.046Z,40.22
2022-09-17T08:45:38.029Z,40.52
2022-09-17T08:46:38.076Z,40.82
2022-09-17T08:47:38.009Z,40.42
2022-09-17T08:48:38.110Z,40.62
2022-09-17T08:49:37.984Z,40.41
2022-09-17T08:50:37.980Z,40.60
2022-09-17T08:51:37.961Z,40.70
2022-09-17T08:52:37.956Z,40.70
2022-09-17T08:53:37.939Z,40.41
2022-09-17T08:54:37.928Z,40.20
2022-09-17T08:55:37.923Z,40.60
2022-09-17T08:56:37.912Z,40.30
2022-09-17T08:57:37.894Z,40.11
2022-09-17T08:58:37.884Z,40.01
2022-09-17T08:59:37.871Z,39.79
2022-09-17T09:00:37.860Z,39.89
2022-09-17T09:01:37.996Z,40.01
2022-09-17T09:02:38.053Z,39.89
2022-09-17T09:03:37.826Z,39.89
2022-09-17T09:04:37.932Z,40.19
2022-09-17T09:05:37.804Z,39.89
2022-09-17T09:06:37.794Z,40.09
2022-09-17T09:07:37.781Z,39.79
2022-09-17T09:08:37.802Z,39.90
2022-09-17T09:09:37.759Z,39.89
2022-09-17T09:10:37.748Z,39.98
2022-09-17T09:11:37.738Z,39.98
2022-09-17T09:12:37.726Z,40.09
2022-09-17T09:13:37.713Z,40.17
2022-09-17T09:14:37.714Z,39.89
2022-09-17T09:15:37.691Z,39.89
2022-09-17T09:16:37.768Z,40.09
2022-09-17T09:17:37.670Z,40.09
2022-09-17T09:18:37.658Z,39.98
2022-09-17T09:19:37.646Z,39.90
2022-09-17T09:20:37.776Z,39.98
2022-09-17T09:21:37.623Z,39.89
2022-09-17T09:22:37.613Z,40.09
2022-09-17T09:23:37.604Z,39.98
2022-09-17T09:24:37.590Z,39.89
2022-09-17T09:25:37.579Z,40.09
2022-09-17T09:26:37.574Z,39.89
2022-09-17T09:27:37.556Z,39.89
2022-09-17T09:28:37.546Z,40.28
2022-09-17T09:29:37.535Z,40.19
2022-09-17T09:30:37.528Z,39.98
2022-09-17T09:31:37.564Z,40.09
2022-09-17T09:32:37.516Z,40.48
2022-09-17T09:33:37.488Z,39.89
2022-09-17T09:34:37.477Z,39.97
2022-09-17T09:35:37.481Z,39.97
2022-09-17T09:36:37.575Z,39.97
2022-09-17T09:37:37.444Z,39.77
2022-09-17T09:38:37.462Z,39.97
2022-09-17T09:39:42.540Z,39.77
2022-09-17T09:40:38.457Z,39.67
2022-09-17T09:41:37.407Z,40.17
2022-09-17T09:42:37.389Z,39.77
2022-09-17T09:44:02.193Z,39.97
2022-09-17T09:44:38.372Z,40.17
2022-09-17T09:45:37.353Z,39.97
2022-09-17T09:46:37.435Z,40.36
2022-09-17T09:47:37.331Z,40.36
2022-09-17T09:48:37.320Z,39.57
2022-09-17T09:49:37.309Z,40.36
2022-09-17T09:51:01.962Z,39.67
2022-09-17T09:51:38.284Z,39.57
2022-09-17T09:52:37.396Z,39.97
2022-09-17T09:53:37.263Z,39.79
2022-09-17T09:54:37.256Z,40.36
2022-09-17T09:55:37.242Z,40.28
2022-09-17T09:56:37.238Z,40.09
2022-09-17T09:57:37.219Z,39.89
2022-09-17T09:58:37.208Z,40.19
2022-09-17T09:59:37.197Z,39.98
2022-09-17T10:00:37.186Z,39.98
2022-09-17T10:01:37.273Z,39.98
2022-09-17T10:02:37.380Z,39.89
2022-09-17T10:03:37.151Z,39.89
2022-09-17T10:04:37.152Z,39.89
2022-09-17T10:05:37.127Z,40.11
2022-09-17T10:06:37.117Z,39.98
2022-09-17T10:07:37.105Z,39.89
2022-09-17T10:08:37.120Z,39.98
2022-09-17T10:09:37.113Z,39.89
2022-09-17T10:10:37.073Z,39.89
2022-09-17T10:11:37.061Z,39.81
2022-09-17T10:12:37.051Z,39.89
2022-09-17T10:13:37.039Z,40.19
2022-09-17T10:14:37.060Z,39.90
2022-09-17T10:15:37.016Z,40.28
2022-09-17T10:16:37.079Z,40.09
2022-09-17T10:17:36.994Z,39.89
2022-09-17T10:18:36.985Z,40.09
2022-09-17T10:19:36.980Z,40.20
2022-09-17T10:20:36.983Z,39.79
2022-09-17T10:21:36.949Z,40.09
2022-09-17T10:22:36.937Z,38.44
2022-09-17T10:23:36.927Z,37.81
2022-09-17T10:24:37.035Z,37.36
2022-09-17T10:25:36.904Z,35.96
2022-09-17T10:26:36.930Z,36.34
2022-09-17T10:27:36.886Z,36.44
2022-09-17T10:28:36.870Z,36.18
2022-09-17T10:29:36.859Z,36.67
2022-09-17T10:30:36.854Z,36.55
2022-09-17T10:31:36.898Z,36.63
2022-09-17T10:32:36.832Z,36.71
2022-09-17T10:33:36.815Z,35.91
2022-09-17T10:34:36.802Z,35.28
2022-09-17T10:35:36.792Z,34.79
2022-09-17T10:36:38.019Z,34.89
2022-09-17T10:37:36.769Z,34.81
2022-09-17T10:38:36.765Z,35.52
2022-09-17T10:39:36.796Z,35.83
2022-09-17T10:40:36.912Z,36.36
2022-09-17T10:41:36.724Z,37.15
2022-09-17T10:42:36.713Z,36.08
2022-09-17T10:43:36.707Z,36.47
2022-09-17T10:44:36.725Z,36.69
2022-09-17T10:45:36.681Z,37.38
2022-09-17T10:46:36.752Z,37.20
2022-09-17T10:47:36.656Z,38.19
2022-09-17T10:48:36.648Z,37.49
2022-09-17T10:49:36.634Z,37.81
2022-09-17T10:50:36.629Z,37.71
2022-09-17T10:51:36.612Z,37.53
2022-09-17T10:52:36.601Z,38.13
2022-09-17T10:53:36.590Z,37.73
2022-09-17T10:54:36.579Z,38.23
2022-09-17T10:55:36.567Z,37.95
2022-09-17T10:56:36.676Z,39.04
2022-09-17T10:57:36.546Z,38.84
2022-09-17T10:58:40.457Z,38.84
2022-09-17T10:59:37.520Z,39.04
2022-09-17T11:00:36.511Z,39.23
2022-09-17T11:01:36.588Z,38.94
2022-09-17T11:02:36.747Z,38.94
2022-09-17T11:03:36.478Z,38.54
2022-09-17T11:04:36.467Z,38.84
2022-09-17T11:05:36.460Z,38.64
2022-09-17T11:06:36.443Z,38.74
2022-09-17T11:07:36.436Z,38.74
2022-09-17T11:08:36.427Z,39.04
2022-09-17T11:09:36.410Z,38.54
2022-09-17T11:10:36.400Z,38.34
2022-09-17T11:11:36.387Z,38.64
2022-09-17T11:12:36.495Z,38.74
2022-09-17T11:13:36.366Z,38.74
2022-09-17T11:14:36.362Z,38.84
2022-09-17T11:15:36.344Z,38.84
2022-09-17T11:16:36.500Z,38.64
2022-09-17T11:17:36.320Z,38.94
2022-09-17T11:18:36.309Z,38.64
2022-09-17T11:19:36.301Z,38.94
2022-09-17T11:20:36.293Z,38.94
2022-09-17T11:21:36.276Z,38.94
2022-09-17T11:22:36.264Z,38.34
2022-09-17T11:23:36.256Z,38.64
2022-09-17T11:24:36.242Z,38.64
2022-09-17T11:25:36.231Z,38.74
2022-09-17T11:26:36.255Z,38.84
2022-09-17T11:27:36.208Z,38.64
2022-09-17T11:28:36.216Z,38.82
2022-09-17T11:29:36.187Z,37.63
2022-09-17T11:30:36.174Z,37.71
2022-09-17T11:31:36.321Z,37.49
2022-09-17T11:32:36.158Z,37.60
2022-09-17T11:33:36.140Z,37.70
2022-09-17T11:34:36.132Z,37.08
2022-09-17T11:35:36.119Z,37.46
2022-09-17T11:36:36.107Z,37.07
2022-09-17T11:37:36.099Z,36.57
2022-09-17T11:38:36.101Z,36.67
2022-09-17T11:39:36.075Z,36.46
2022-09-17T11:40:36.142Z,36.85
2022-09-17T11:41:36.051Z,36.65
2022-09-17T11:42:36.041Z,36.34
2022-09-17T11:43:36.031Z,36.14
2022-09-17T11:44:36.147Z,36.54
2022-09-17T11:45:36.008Z,36.14
2022-09-17T11:46:36.071Z,36.22
2022-09-17T11:47:35.996Z,36.32
2022-09-17T11:48:35.978Z,35.83
2022-09-17T11:49:35.965Z,36.54
2022-09-17T11:50:35.962Z,36.34
2022-09-17T11:51:35.944Z,36.25
2022-09-17T11:52:35.932Z,36.37
2022-09-17T11:53:35.921Z,37.16
2022-09-17T11:54:35.910Z,37.08
2022-09-17T11:55:35.899Z,37.08
2022-09-17T11:56:35.895Z,36.98
2022-09-17T11:57:35.877Z,37.38
2022-09-17T11:58:35.865Z,37.48
2022-09-17T11:59:35.856Z,37.38
2022-09-17T12:00:35.963Z,37.48
2022-09-17T12:01:35.868Z,36.98
2022-09-17T12:02:35.875Z,37.07
2022-09-17T12:03:35.810Z,37.26
2022-09-17T12:04:35.800Z,36.57
2022-09-17T12:05:35.789Z,36.36
2022-09-17T12:06:35.778Z,36.75
2022-09-17T12:07:35.769Z,36.25
2022-09-17T12:08:35.766Z,36.46
2022-09-17T12:09:35.744Z,36.83
2022-09-17T12:10:35.733Z,36.54
2022-09-17T12:11:35.722Z,36.36
2022-09-17T12:12:49.584Z,36.75
2022-09-17T12:13:36.715Z,36.57
2022-09-17T12:14:35.690Z,37.26
2022-09-17T12:15:35.678Z,37.07
2022-09-17T12:16:35.814Z,37.07
2022-09-17T12:17:35.655Z,36.75
2022-09-17T12:18:35.646Z,36.87
2022-09-17T12:19:35.646Z,37.26
2022-09-17T12:20:35.622Z,37.28
2022-09-17T12:21:35.611Z,37.18
2022-09-17T12:22:40.111Z,36.87
2022-09-17T12:23:35.594Z,36.87
2022-09-17T12:24:35.579Z,37.26
2022-09-17T12:25:35.573Z,37.08
2022-09-17T12:26:35.556Z,37.26
2022-09-17T12:27:35.546Z,37.08
2022-09-17T12:28:35.535Z,37.28
2022-09-17T12:29:35.523Z,37.16
2022-09-17T12:30:35.514Z,36.88
2022-09-17T12:31:35.564Z,36.87
2022-09-17T12:32:35.607Z,37.98
2022-09-17T12:33:35.482Z,37.58
2022-09-17T12:34:35.468Z,37.38
2022-09-17T12:36:02.396Z,37.79
2022-09-17T12:36:36.465Z,37.89
2022-09-17T12:37:35.436Z,37.99
2022-09-17T12:38:35.423Z,37.79
2022-09-17T12:39:35.412Z,37.99
2022-09-17T12:40:35.510Z,37.49
2022-09-17T12:41:35.391Z,37.60
2022-09-17T12:42:35.399Z,37.81
2022-09-17T12:43:35.368Z,37.79
2022-09-17T12:44:35.357Z,37.62
2022-09-17T12:45:35.349Z,37.49
2022-09-17T12:46:35.379Z,37.79
2022-09-17T12:47:35.324Z,37.48
2022-09-17T12:48:35.438Z,36.97
2022-09-17T12:49:35.302Z,36.75
2022-09-17T12:50:35.290Z,36.24
2022-09-17T12:51:35.278Z,35.71
2022-09-17T12:52:35.268Z,35.40
2022-09-17T12:53:35.258Z,36.07